createdAt,value
2018-08-12T00:02:08.243Z,97999.11
2018-08-12T00:04:37.060Z,97999.32
2018-08-12T00:07:06.102Z,98003.91
2018-08-12T00:09:34.961Z,97999.83
2018-08-12T00:12:05.203Z,98002.41
2018-08-12T00:14:34.283Z,98000.75
2018-08-12T00:17:03.186Z,98001.62
2018-08-12T00:19:32.028Z,97999.44
2018-08-12T00:22:00.848Z,98004.52
2018-08-12T00:27:04.362Z,98010.07
2018-08-12T00:29:33.185Z,98006.20
2018-08-12T00:32:02.149Z,97998.42
2018-08-12T00:37:19.819Z,98005.19
2018-08-12T00:40:01.747Z,98005.58
2018-08-12T00:42:36.707Z,98009.45
2018-08-12T00:45:14.666Z,98009.77
2018-08-12T00:47:47.465Z,98008.95
2018-08-12T00:50:22.767Z,98013.94
2018-08-12T00:53:04.045Z,98010.97
2018-08-12T00:55:38.979Z,98015.96
2018-08-12T00:58:16.068Z,98014.34
2018-08-12T01:00:54.095Z,98002.64
2018-08-12T01:03:31.061Z,97997.09
2018-08-12T01:06:04.611Z,98007.00
2018-08-12T01:08:40.225Z,97993.57
2018-08-12T01:11:20.802Z,97990.23
2018-08-12T01:13:59.308Z,97988.86
2018-08-12T01:16:38.967Z,97987.77
2018-08-12T01:19:16.934Z,97993.68
2018-08-12T01:21:51.512Z,97992.95
2018-08-12T01:24:30.946Z,97993.50
2018-08-12T01:27:13.018Z,97991.95
2018-08-12T01:29:51.552Z,97990.04
2018-08-12T01:32:28.342Z,97985.27
2018-08-12T01:35:06.092Z,97987.35
2018-08-12T01:37:42.381Z,97988.34
2018-08-12T01:40:22.945Z,97989.59
2018-08-12T01:43:01.748Z,97981.30
2018-08-12T01:48:22.240Z,97980.45
2018-08-12T01:50:58.315Z,97978.36
2018-08-12T01:53:34.224Z,97977.45
2018-08-12T01:56:12.512Z,97973.39
2018-08-12T01:58:55.023Z,97969.52
2018-08-12T02:01:30.442Z,97973.12
2018-08-12T02:04:06.201Z,97966.79
2018-08-12T02:09:24.165Z,97961.58
2018-08-12T02:12:03.568Z,97959.94
2018-08-12T02:14:40.847Z,97963.19
2018-08-12T02:17:16.355Z,97960.02
2018-08-12T02:22:41.861Z,97953.28
2018-08-12T02:25:17.328Z,97958.14
2018-08-12T02:27:57.402Z,97958.69
2018-08-12T02:30:38.826Z,97953.23
2018-08-12T02:33:16.155Z,97954.20
2018-08-12T02:35:50.069Z,97956.93
2018-08-12T02:38:26.949Z,97961.08
2018-08-12T02:41:04.939Z,97953.33
2018-08-12T02:43:42.212Z,97954.50
2018-08-12T02:46:16.870Z,97953.78
2018-08-12T02:48:51.729Z,97947.84
2018-08-12T02:51:30.402Z,97948.28
2018-08-12T02:54:05.671Z,97945.20
2018-08-12T02:56:42.297Z,97948.23
2018-08-12T02:59:21.655Z,97941.91
2018-08-12T03:01:57.038Z,97946.82
2018-08-12T03:04:32.748Z,97943.20
2018-08-12T03:07:10.015Z,97944.42
2018-08-12T03:12:16.040Z,97947.47
2018-08-12T03:14:51.219Z,97946.39
2018-08-12T03:17:26.652Z,97952.64
2018-08-12T03:20:02.517Z,97950.04
2018-08-12T03:22:31.525Z,97944.76
2018-08-12T03:25:00.439Z,97955.27
2018-08-12T03:27:29.333Z,97960.19
2018-08-12T03:29:59.152Z,97951.64
2018-08-12T03:32:27.948Z,97952.23
2018-08-12T03:34:56.916Z,97955.44
2018-08-12T03:37:25.806Z,97954.78
2018-08-12T03:39:54.715Z,97953.78
2018-08-12T03:42:23.557Z,97953.93
2018-08-12T03:44:52.528Z,97959.83
2018-08-12T03:47:21.290Z,97963.56
2018-08-12T03:49:50.155Z,97963.89
2018-08-12T03:52:19.119Z,97954.48
2018-08-12T03:54:48.125Z,97955.02
2018-08-12T03:57:16.929Z,97961.74
2018-08-12T03:59:46.816Z,97959.83
2018-08-12T04:07:13.156Z,97962.98
2018-08-12T04:09:42.004Z,97969.20
2018-08-12T04:12:11.835Z,97969.00
2018-08-12T04:14:40.867Z,97971.09
2018-08-12T04:17:09.860Z,97968.92
2018-08-12T04:19:39.131Z,97970.06
2018-08-12T04:22:09.129Z,97978.27
2018-08-12T04:24:38.592Z,97970.73
2018-08-12T04:27:07.647Z,97977.20
2018-08-12T04:29:36.627Z,97969.95
2018-08-12T04:32:05.630Z,97976.71
2018-08-12T04:34:35.022Z,97980.66
2018-08-12T04:37:04.966Z,97978.30
2018-08-12T04:39:33.893Z,97987.03
2018-08-12T04:42:04.374Z,97986.87
2018-08-12T04:47:07.648Z,97989.49
2018-08-12T04:49:36.499Z,97991.38
2018-08-12T04:52:07.929Z,97991.63
2018-08-12T04:54:36.833Z,97992.56
2018-08-12T04:57:06.709Z,97994.75
2018-08-12T04:59:35.544Z,98002.36
2018-08-12T05:02:04.504Z,97997.45
2018-08-12T05:04:34.598Z,98001.73
2018-08-12T05:09:38.139Z,97995.91
2018-08-12T05:12:07.570Z,97999.73
2018-08-12T05:14:36.456Z,97997.93
2018-08-12T05:17:05.312Z,97995.78
2018-08-12T05:19:34.928Z,97996.20
2018-08-12T05:22:03.760Z,98003.78
2018-08-12T05:24:32.700Z,98006.09
2018-08-12T05:27:01.681Z,98003.29
2018-08-12T05:29:30.666Z,98009.56
2018-08-12T05:31:59.792Z,98001.77
2018-08-12T05:34:29.470Z,97998.59
2018-08-12T05:36:58.464Z,97997.97
2018-08-12T05:39:27.351Z,97998.39
2018-08-12T05:41:56.504Z,98002.26
2018-08-12T05:44:25.335Z,97995.26
2018-08-12T05:46:54.549Z,98004.56
2018-08-12T05:49:23.552Z,98001.65
2018-08-12T05:51:53.345Z,97992.11
2018-08-12T05:54:23.570Z,97994.30
2018-08-12T05:56:53.265Z,97988.39
2018-08-12T06:01:57.543Z,97991.28
2018-08-12T06:04:26.365Z,97991.45
2018-08-12T06:06:55.248Z,97988.70
2018-08-12T06:09:30.800Z,97988.56
2018-08-12T06:11:59.621Z,97981.73
2018-08-12T06:14:29.892Z,97978.75
2018-08-12T06:17:00.368Z,97983.73
2018-08-12T06:19:29.148Z,97986.09
2018-08-12T06:21:58.019Z,97991.95
2018-08-12T06:24:27.562Z,97991.52
2018-08-12T06:26:56.628Z,97997.66
2018-08-12T06:29:26.571Z,97993.78
2018-08-12T06:31:55.437Z,97985.75
2018-08-12T06:34:24.384Z,97993.54
2018-08-12T06:36:53.328Z,97990.34
2018-08-12T06:39:22.264Z,97985.38
2018-08-12T06:41:51.204Z,97987.17
2018-08-12T06:44:20.645Z,97985.07
2018-08-12T06:46:49.569Z,97979.08
2018-08-12T06:49:19.312Z,97981.20
2018-08-12T06:51:48.279Z,97982.56
2018-08-12T06:54:17.186Z,97974.00
2018-08-12T06:56:46.077Z,97971.63
2018-08-12T06:59:14.894Z,97966.88
2018-08-12T07:01:43.877Z,97963.22
2018-08-12T07:04:13.487Z,97965.64
2018-08-12T07:06:42.675Z,97964.71
2018-08-12T07:09:12.353Z,97966.27
2018-08-12T07:11:41.217Z,97963.86
2018-08-12T07:14:10.113Z,97962.52
2018-08-12T07:16:38.951Z,97966.00
2018-08-12T07:19:08.522Z,97964.13
2018-08-12T07:21:38.010Z,97964.25
2018-08-12T07:24:08.132Z,97966.11
2018-08-12T07:26:37.030Z,97972.05
2018-08-12T07:29:06.385Z,97970.44
2018-08-12T07:31:36.506Z,97966.66
2018-08-12T07:34:05.291Z,97971.27
2018-08-12T07:36:34.900Z,97962.36
2018-08-12T07:39:05.645Z,97959.39
2018-08-12T07:41:35.828Z,97960.47
2018-08-12T07:44:04.791Z,97965.06
2018-08-12T07:46:34.289Z,97962.91
2018-08-12T07:49:07.150Z,97958.36
2018-08-12T07:51:39.034Z,97959.83
2018-08-12T07:54:08.687Z,97958.52
2018-08-12T07:56:39.362Z,97957.77
2018-08-12T07:59:08.598Z,97957.42
2018-08-12T08:01:37.737Z,97956.59
2018-08-12T08:04:07.516Z,97959.84
2018-08-12T08:06:41.965Z,97957.61
2018-08-12T08:09:13.372Z,97953.81
2018-08-12T08:11:43.438Z,97952.67
2018-08-12T08:14:12.276Z,97953.42
2018-08-12T08:16:41.187Z,97945.01
2018-08-12T08:24:20.522Z,97945.26
2018-08-12T08:26:49.400Z,97948.02
2018-08-12T08:29:18.517Z,97952.89
2018-08-12T08:31:49.005Z,97945.95
2018-08-12T08:34:17.478Z,97944.38
2018-08-12T08:36:48.054Z,97943.31
2018-08-12T08:39:17.549Z,97942.98
2018-08-12T08:41:46.369Z,97945.01
2018-08-12T08:44:15.299Z,97949.44
2018-08-12T08:46:44.143Z,97943.34
2018-08-12T08:49:13.161Z,97953.86
2018-08-12T08:51:41.990Z,97948.60
2018-08-12T08:54:10.715Z,97943.67
2018-08-12T08:56:39.565Z,97942.61
2018-08-12T08:59:08.423Z,97940.92
2018-08-12T09:01:37.512Z,97937.05
2018-08-12T09:04:06.395Z,97941.86
2018-08-12T09:06:35.304Z,97939.93
2018-08-12T09:09:06.576Z,97935.27
2018-08-12T09:11:35.174Z,97941.31
2018-08-12T09:14:04.039Z,97939.78
2018-08-12T09:16:33.229Z,97936.67
2018-08-12T09:19:02.000Z,97935.08
2018-08-12T09:21:31.701Z,97932.42
2018-08-12T09:24:01.852Z,97930.05
2018-08-12T09:26:31.556Z,97925.58
2018-08-12T09:29:01.471Z,97921.07
2018-08-12T09:31:31.634Z,97915.04
2018-08-12T09:34:02.021Z,97917.77
2018-08-12T09:36:31.502Z,97914.17
2018-08-12T09:39:00.460Z,97905.31
2018-08-12T09:41:29.512Z,97906.33
2018-08-12T09:43:58.707Z,97910.30
2018-08-12T09:46:27.681Z,97903.55
2018-08-12T09:48:56.548Z,97898.45
2018-08-12T09:51:25.452Z,97899.52
2018-08-12T09:53:54.328Z,97895.38
2018-08-12T09:56:23.417Z,97888.67
2018-08-12T09:58:52.371Z,97887.49
2018-08-12T10:01:21.195Z,97880.03
2018-08-12T10:03:52.714Z,97888.78
2018-08-12T10:06:21.603Z,97887.30
2018-08-12T10:08:50.430Z,97881.72
2018-08-12T10:11:20.029Z,97879.83
2018-08-12T10:13:50.003Z,97876.97
2018-08-12T10:16:19.427Z,97875.28
2018-08-12T10:18:48.400Z,97878.66
2018-08-12T10:21:17.414Z,97878.81
2018-08-12T10:23:46.415Z,97867.44
2018-08-12T10:26:15.425Z,97866.60
2018-08-12T10:28:44.529Z,97867.47
2018-08-12T10:31:17.303Z,97864.54
2018-08-12T10:33:52.051Z,97859.64
2018-08-12T10:36:21.053Z,97856.73
2018-08-12T10:38:50.047Z,97862.73
2018-08-12T10:41:18.992Z,97862.66
2018-08-12T10:43:48.940Z,97858.83
2018-08-12T10:46:17.901Z,97863.32
2018-08-12T10:48:47.126Z,97848.54
2018-08-12T10:51:16.414Z,97848.64
2018-08-12T10:53:45.412Z,97843.63
2018-08-12T10:56:14.397Z,97846.75
2018-08-12T10:58:44.386Z,97845.77
2018-08-12T11:01:13.359Z,97834.81
2018-08-12T11:03:42.344Z,97835.42
2018-08-12T11:06:11.439Z,97838.50
2018-08-12T11:08:40.632Z,97832.58
2018-08-12T11:11:09.731Z,97837.08
2018-08-12T11:13:38.629Z,97835.25
2018-08-12T11:16:07.713Z,97832.20
2018-08-12T11:18:36.667Z,97830.28
2018-08-12T11:21:07.251Z,97823.97
2018-08-12T11:23:36.077Z,97829.94
2018-08-12T11:26:05.308Z,97829.17
2018-08-12T11:28:34.788Z,97825.25
2018-08-12T11:31:04.397Z,97812.91
2018-08-12T11:33:33.420Z,97808.69
2018-08-12T11:36:11.651Z,97807.83
2018-08-12T11:38:40.649Z,97805.48
2018-08-12T11:41:10.330Z,97804.54
2018-08-12T11:43:40.538Z,97806.97
2018-08-12T11:46:10.337Z,97798.58
2018-08-12T11:48:41.944Z,97794.46
2018-08-12T11:51:10.947Z,97785.48
2018-08-12T11:53:39.960Z,97796.06
2018-08-12T11:56:08.778Z,97793.86
2018-08-12T11:58:37.648Z,97781.99
2018-08-12T12:01:06.896Z,97782.78
2018-08-12T12:03:35.837Z,97774.44
2018-08-12T12:06:06.004Z,97771.20
2018-08-12T12:08:34.859Z,97766.78
2018-08-12T12:11:05.269Z,97763.36
2018-08-12T12:13:34.456Z,97755.67
2018-08-12T12:16:03.688Z,97753.45
2018-08-12T12:18:32.584Z,97746.22
2018-08-12T12:21:03.985Z,97738.56
2018-08-12T12:23:33.265Z,97743.70
2018-08-12T12:26:02.821Z,97748.46
2018-08-12T12:28:31.557Z,97736.84
2018-08-12T12:31:00.448Z,97728.19
2018-08-12T12:33:29.258Z,97729.53
2018-08-12T12:35:58.248Z,97726.36
2018-08-12T12:38:27.280Z,97724.72
2018-08-12T12:40:56.188Z,97719.84
2018-08-12T12:43:25.148Z,97717.77
2018-08-12T12:45:55.088Z,97718.29
2018-08-12T12:48:24.408Z,97721.48
2018-08-12T12:50:54.016Z,97708.16
2018-08-12T12:53:23.094Z,97700.72
2018-08-12T12:55:51.977Z,97699.78
2018-08-12T12:58:21.636Z,97702.95
2018-08-12T13:00:57.080Z,97693.08
2018-08-12T13:03:26.256Z,97697.00
2018-08-12T13:05:56.193Z,97688.50
2018-08-12T13:08:26.435Z,97681.34
2018-08-12T13:10:56.559Z,97670.77
2018-08-12T13:13:26.240Z,97673.09
2018-08-12T13:15:56.826Z,97667.09
2018-08-12T13:18:26.151Z,97659.61
2018-08-12T13:20:56.784Z,97654.19
2018-08-12T13:23:26.208Z,97651.30
2018-08-12T13:25:56.639Z,97650.62
2018-08-12T13:28:26.339Z,97647.42
2018-08-12T13:30:56.430Z,97643.72
2018-08-12T13:33:26.407Z,97642.27
2018-08-12T13:35:56.494Z,97637.37
2018-08-12T13:38:26.536Z,97636.92
2018-08-12T13:40:56.668Z,97629.41
2018-08-12T13:43:26.468Z,97628.73
2018-08-12T13:45:56.453Z,97622.73
2018-08-12T13:48:26.760Z,97606.14
2018-08-12T13:50:56.481Z,97610.50
2018-08-12T13:53:29.709Z,97612.98
2018-08-12T13:55:58.722Z,97605.47
2018-08-12T13:58:30.163Z,97607.73
2018-08-12T14:00:59.871Z,97601.41
2018-08-12T14:03:29.074Z,97596.52
2018-08-12T14:06:00.687Z,97590.89
2018-08-12T14:08:29.525Z,97590.20
2018-08-12T14:10:59.090Z,97586.30
2018-08-12T14:13:28.933Z,97581.73
2018-08-12T14:15:59.161Z,97582.89
2018-08-12T14:18:29.352Z,97575.36
2018-08-12T14:21:03.672Z,97569.48
2018-08-12T14:23:32.872Z,97559.14
2018-08-12T14:26:02.122Z,97562.77
2018-08-12T14:28:32.369Z,97557.73
2018-08-12T14:31:01.915Z,97549.31
2018-08-12T14:33:32.401Z,97551.44
2018-08-12T14:36:01.840Z,97542.45
2018-08-12T14:38:30.822Z,97546.08
2018-08-12T14:40:59.777Z,97538.70
2018-08-12T14:43:29.822Z,97538.28
2018-08-12T14:45:58.910Z,97539.56
2018-08-12T14:48:28.334Z,97532.83
2018-08-12T14:50:58.395Z,97517.38
2018-08-12T14:53:27.536Z,97520.80
2018-08-12T14:55:57.799Z,97526.58
2018-08-12T14:58:27.138Z,97524.89
2018-08-12T15:00:56.631Z,97518.52
2018-08-12T15:03:25.774Z,97517.41
2018-08-12T15:05:54.895Z,97518.56
2018-08-12T15:08:24.582Z,97512.91
2018-08-12T15:10:53.407Z,97506.66
2018-08-12T15:13:22.612Z,97501.38
2018-08-12T15:15:51.573Z,97488.27
2018-08-12T15:18:21.461Z,97495.17
2018-08-12T15:20:50.491Z,97489.37
2018-08-12T15:23:19.576Z,97491.75
2018-08-12T15:25:48.868Z,97490.56
2018-08-12T15:28:17.904Z,97489.97
2018-08-12T15:30:47.756Z,97488.72
2018-08-12T15:33:16.872Z,97485.19
2018-08-12T15:35:47.081Z,97480.72
2018-08-12T15:38:15.968Z,97477.05
2018-08-12T15:40:45.168Z,97476.82
2018-08-12T15:43:14.216Z,97483.44
2018-08-12T15:45:44.520Z,97473.98
2018-08-12T15:48:14.401Z,97473.50
2018-08-12T15:50:43.663Z,97468.80
2018-08-12T15:53:13.047Z,97471.40
2018-08-12T15:55:43.111Z,97469.94
2018-08-12T15:58:13.230Z,97470.81
2018-08-12T16:00:43.260Z,97469.78
2018-08-12T16:03:12.224Z,97462.88
2018-08-12T16:05:41.467Z,97464.95
2018-08-12T16:08:10.433Z,97453.47
2018-08-12T16:10:40.466Z,97451.74
2018-08-12T16:13:11.047Z,97449.00
2018-08-12T16:15:40.367Z,97444.21
2018-08-12T16:18:09.976Z,97441.88
2018-08-12T16:20:39.038Z,97441.28
2018-08-12T16:23:07.994Z,97442.32
2018-08-12T16:25:37.017Z,97439.60
2018-08-12T16:28:05.953Z,97438.05
2018-08-12T16:30:35.201Z,97435.79
2018-08-12T16:33:04.171Z,97435.52
2018-08-12T16:35:33.627Z,97438.23
2018-08-12T16:38:02.499Z,97433.01
2018-08-12T16:40:31.310Z,97432.25
2018-08-12T16:43:00.563Z,97435.89
2018-08-12T16:45:29.748Z,97429.66
2018-08-12T16:47:58.602Z,97429.75
2018-08-12T16:50:27.528Z,97427.93
2018-08-12T16:52:56.411Z,97429.20
2018-08-12T16:55:25.604Z,97428.03
2018-08-12T17:00:29.151Z,97419.67
2018-08-12T17:02:58.074Z,97422.69
2018-08-12T17:05:26.949Z,97422.09
2018-08-12T17:07:55.807Z,97416.27
2018-08-12T17:10:24.765Z,97418.20
2018-08-12T17:12:53.608Z,97413.17
2018-08-12T17:15:23.765Z,97412.78
2018-08-12T17:17:52.683Z,97414.46
2018-08-12T17:20:22.239Z,97408.49
2018-08-12T17:22:51.799Z,97408.69
2018-08-12T17:25:20.607Z,97413.62
2018-08-12T17:27:49.383Z,97409.56
2018-08-12T17:30:18.984Z,97410.87
2018-08-12T17:32:48.856Z,97406.76
2018-08-12T17:35:17.919Z,97407.36
2018-08-12T17:37:46.890Z,97404.45
2018-08-12T17:40:18.895Z,97402.03
2018-08-12T17:42:47.918Z,97401.30
2018-08-12T17:45:16.899Z,97399.09
2018-08-12T17:47:45.887Z,97399.02
2018-08-12T17:50:17.080Z,97405.36
2018-08-12T17:52:45.965Z,97400.11
2018-08-12T17:55:14.859Z,97418.12
2018-08-12T17:57:44.013Z,97414.61
2018-08-12T18:00:14.737Z,97414.37
2018-08-12T18:02:50.485Z,97414.94
2018-08-12T18:05:19.330Z,97412.20
2018-08-12T18:07:54.978Z,97413.22
2018-08-12T18:10:26.425Z,97413.88
2018-08-12T18:15:29.673Z,97416.84
2018-08-12T18:17:58.970Z,97417.48
2018-08-12T18:20:27.786Z,97422.63
2018-08-12T18:22:56.657Z,97431.89
2018-08-12T18:25:25.485Z,97433.63
2018-08-12T18:27:54.367Z,97429.12
2018-08-12T18:30:23.401Z,97430.89
2018-08-12T18:32:52.674Z,97428.70
2018-08-12T18:35:22.387Z,97432.30
2018-08-12T18:37:51.804Z,97437.23
2018-08-12T18:40:21.910Z,97434.97
2018-08-12T18:42:52.071Z,97442.63
2018-08-12T18:45:21.859Z,97447.83
2018-08-12T18:47:51.661Z,97441.56
2018-08-12T18:50:21.724Z,97448.30
2018-08-12T18:52:51.962Z,97449.07
2018-08-12T18:55:21.840Z,97450.63
2018-08-12T18:57:52.956Z,97449.09
2018-08-12T19:00:22.238Z,97453.56
2018-08-12T19:02:51.971Z,97452.12
2018-08-12T19:05:22.042Z,97455.17
2018-08-12T19:07:51.925Z,97453.63
2018-08-12T19:10:21.978Z,97457.44
2018-08-12T19:12:52.025Z,97453.48
2018-08-12T19:15:21.911Z,97458.52
2018-08-12T19:20:46.046Z,97459.70
2018-08-12T19:23:15.060Z,97457.92
2018-08-12T19:25:44.078Z,97454.87
2018-08-12T19:28:13.173Z,97453.90
2018-08-12T19:30:42.101Z,97455.11
2018-08-12T19:33:10.997Z,97465.09
2018-08-12T19:35:40.260Z,97461.09
2018-08-12T19:38:09.204Z,97455.85
2018-08-12T19:40:38.253Z,97458.39
2018-08-12T19:43:07.436Z,97457.62
2018-08-12T19:45:36.928Z,97459.70
2018-08-12T19:48:06.119Z,97460.77
2018-08-12T19:50:35.759Z,97454.70
2018-08-12T19:53:06.334Z,97451.50
2018-08-12T19:55:36.110Z,97449.92
2018-08-12T19:58:05.240Z,97446.19
2018-08-12T20:00:34.084Z,97444.51
2018-08-12T20:03:03.196Z,97443.02
2018-08-12T20:05:32.137Z,97443.31
2018-08-12T20:08:01.564Z,97438.23
2018-08-12T20:10:31.835Z,97439.04
2018-08-12T20:13:00.807Z,97433.10
2018-08-12T20:15:29.712Z,97434.95
2018-08-12T20:17:58.621Z,97436.55
2018-08-12T20:20:27.732Z,97429.03
2018-08-12T20:22:56.784Z,97431.78
2018-08-12T20:25:25.760Z,97429.14
2018-08-12T20:27:55.084Z,97429.95
2018-08-12T20:30:24.281Z,97430.52
2018-08-12T20:32:53.319Z,97434.27
2018-08-12T20:35:22.717Z,97434.51
2018-08-12T20:37:52.914Z,97438.00
2018-08-12T20:40:23.046Z,97433.97
2018-08-12T20:42:52.873Z,97430.78
2018-08-12T20:45:22.760Z,97431.58
2018-08-12T20:47:53.185Z,97432.63
2018-08-12T20:50:23.098Z,97432.08
2018-08-12T20:52:53.014Z,97431.83
2018-08-12T20:55:23.059Z,97430.23
2018-08-12T20:57:53.136Z,97431.58
2018-08-12T21:00:23.014Z,97435.60
2018-08-12T21:02:53.144Z,97432.94
2018-08-12T21:05:23.080Z,97427.03
2018-08-12T21:07:53.256Z,97428.90
2018-08-12T21:10:23.293Z,97427.03
2018-08-12T21:12:53.625Z,97432.11
2018-08-12T21:15:23.232Z,97436.69
2018-08-12T21:17:53.369Z,97435.08
2018-08-12T21:20:23.562Z,97435.88
2018-08-12T21:22:53.113Z,97431.31
2018-08-12T21:25:23.217Z,97432.39
2018-08-12T21:27:53.632Z,97427.82
2018-08-12T21:30:23.591Z,97427.02
2018-08-12T21:32:53.564Z,97430.25
2018-08-12T21:35:25.654Z,97429.17
2018-08-12T21:37:55.064Z,97422.98
2018-08-12T21:40:24.946Z,97424.80
2018-08-12T21:42:54.244Z,97432.58
2018-08-12T21:45:23.517Z,97428.27
2018-08-12T21:47:53.836Z,97430.95
2018-08-12T21:50:23.536Z,97430.70
2018-08-12T21:52:56.807Z,97431.78
2018-08-12T21:55:27.955Z,97431.73
2018-08-12T21:57:59.247Z,97429.82
2018-08-12T22:00:31.655Z,97433.86
2018-08-12T22:03:03.743Z,97429.05
2018-08-12T22:05:36.137Z,97425.58
2018-08-12T22:08:10.264Z,97421.72
2018-08-12T22:10:42.735Z,97415.06
2018-08-12T22:13:14.081Z,97412.41
2018-08-12T22:15:46.171Z,97414.78
2018-08-12T22:18:18.308Z,97413.21
2018-08-12T22:20:50.156Z,97408.37
2018-08-12T22:23:22.791Z,97412.35
2018-08-12T22:25:53.968Z,97414.72
2018-08-12T22:28:32.071Z,97414.10
2018-08-12T22:31:03.335Z,97412.56
2018-08-12T22:33:34.549Z,97411.67
2018-08-12T22:36:05.934Z,97409.45
2018-08-12T22:38:37.388Z,97410.00
2018-08-12T22:41:08.634Z,97404.70
2018-08-12T22:43:40.383Z,97404.00
2018-08-12T22:46:12.092Z,97403.94
2018-08-12T22:48:43.741Z,97405.52
2018-08-12T22:51:15.813Z,97400.38
2018-08-12T22:53:46.946Z,97399.29
2018-08-12T22:56:20.413Z,97399.22
2018-08-12T22:58:56.616Z,97397.02
2018-08-12T23:01:29.435Z,97398.11
2018-08-12T23:04:03.003Z,97395.50
2018-08-12T23:06:34.272Z,97396.06
2018-08-12T23:09:08.511Z,97395.53
2018-08-12T23:11:40.550Z,97396.84
2018-08-12T23:14:12.703Z,97397.56
2018-08-12T23:16:55.084Z,97401.48
2018-08-12T23:19:26.761Z,97399.90
2018-08-12T23:21:57.970Z,97393.31
2018-08-12T23:24:31.469Z,97396.12
2018-08-12T23:27:03.011Z,97391.55
2018-08-12T23:29:35.992Z,97388.67
2018-08-12T23:32:11.753Z,97389.52
2018-08-12T23:34:43.844Z,97390.28
2018-08-12T23:37:16.975Z,97393.00
2018-08-12T23:39:49.015Z,97393.40
2018-08-12T23:42:21.628Z,97386.71
2018-08-12T23:44:52.876Z,97385.92
2018-08-12T23:47:24.203Z,97389.71
2018-08-12T23:49:58.683Z,97384.58
2018-08-12T23:52:30.188Z,97385.09
2018-08-12T23:55:01.528Z,97384.38
2018-08-12T23:57:32.561Z,97375.22
